createdAt,value
2018-03-23T00:01:20.118Z,86.43
2018-03-23T00:04:25.626Z,86.26
2018-03-23T00:07:31.252Z,86.21
2018-03-23T00:10:36.759Z,86.27
2018-03-23T00:13:42.087Z,86.27
2018-03-23T00:16:47.605Z,86.21
2018-03-23T00:19:53.172Z,86.26
2018-03-23T00:22:58.716Z,86.42
2018-03-23T00:26:05.906Z,86.20
2018-03-23T00:29:11.929Z,86.23
2018-03-23T00:32:21.038Z,86.56
2018-03-23T00:35:26.605Z,86.45
2018-03-23T00:38:32.164Z,86.55
2018-03-23T00:41:38.610Z,86.63
2018-03-23T00:44:46.979Z,86.34
2018-03-23T00:47:54.067Z,86.47
2018-03-23T00:51:01.493Z,86.52
2018-03-23T00:54:07.539Z,86.49
2018-03-23T00:57:13.066Z,86.43
2018-03-23T01:00:18.630Z,86.29
2018-03-23T01:03:24.190Z,86.26
2018-03-23T01:06:29.795Z,86.29
2018-03-23T01:09:35.290Z,86.42
2018-03-23T01:12:40.833Z,86.23
2018-03-23T01:15:46.342Z,86.53
2018-03-23T01:18:52.166Z,86.26
2018-03-23T01:21:57.509Z,86.31
2018-03-23T01:25:03.052Z,86.37
2018-03-23T01:28:08.563Z,86.28
2018-03-23T01:31:14.113Z,86.37
2018-03-23T01:34:19.650Z,86.23
2018-03-23T01:37:25.307Z,86.32
2018-03-23T01:40:34.002Z,86.42
2018-03-23T01:43:39.555Z,86.19
2018-03-23T01:46:45.079Z,86.17
2018-03-23T01:49:50.631Z,86.22
2018-03-23T01:52:56.179Z,86.22
2018-03-23T01:56:01.736Z,86.16
2018-03-23T01:59:07.286Z,86.16
2018-03-23T02:02:12.790Z,86.12
2018-03-23T02:05:18.340Z,86.01
2018-03-23T02:08:23.879Z,86.01
2018-03-23T02:11:29.445Z,85.96
2018-03-23T02:14:34.956Z,85.99
2018-03-23T02:17:40.519Z,86.00
2018-03-23T02:20:45.758Z,85.94
2018-03-23T02:23:51.319Z,85.99
2018-03-23T02:26:56.958Z,85.92
2018-03-23T02:30:02.366Z,85.86
2018-03-23T02:33:07.888Z,85.73
2018-03-23T02:36:13.445Z,85.93
2018-03-23T02:39:19.146Z,85.77
2018-03-23T02:42:26.077Z,85.67
2018-03-23T02:45:31.647Z,85.93
2018-03-23T02:48:37.229Z,85.76
2018-03-23T02:51:42.787Z,85.73
2018-03-23T02:54:48.309Z,85.75
2018-03-23T02:57:54.293Z,85.90
2018-03-23T03:00:59.848Z,85.87
2018-03-23T03:04:05.273Z,85.77
2018-03-23T03:07:10.821Z,85.84
2018-03-23T03:10:16.210Z,85.69
2018-03-23T03:13:21.796Z,85.85
2018-03-23T03:16:27.302Z,85.70
2018-03-23T03:19:32.877Z,86.05
2018-03-23T03:22:38.466Z,86.00
2018-03-23T03:25:43.973Z,85.83
2018-03-23T03:28:49.518Z,85.94
2018-03-23T03:32:03.083Z,85.83
2018-03-23T03:35:46.029Z,85.85
2018-03-23T03:38:56.470Z,85.82
2018-03-23T03:42:06.996Z,85.84
2018-03-23T03:45:17.483Z,85.78
2018-03-23T03:48:26.505Z,86.04
2018-03-23T03:51:37.894Z,85.76
2018-03-23T03:54:46.713Z,85.72
2018-03-23T03:57:54.182Z,85.75
2018-03-23T04:01:01.945Z,85.73
2018-03-23T04:04:10.523Z,85.65
2018-03-23T04:07:18.691Z,85.56
2018-03-23T04:10:32.246Z,85.58
2018-03-23T04:13:37.811Z,85.58
2018-03-23T04:16:43.324Z,85.58
2018-03-23T04:19:48.894Z,85.53
2018-03-23T04:22:54.391Z,85.85
2018-03-23T04:25:59.960Z,85.53
2018-03-23T04:29:05.518Z,85.61
2018-03-23T04:32:11.081Z,85.85
2018-03-23T04:35:16.577Z,85.59
2018-03-23T04:38:22.114Z,85.77
2018-03-23T04:41:27.609Z,85.91
2018-03-23T04:44:33.158Z,85.79
2018-03-23T04:47:38.640Z,85.70
2018-03-23T04:50:44.184Z,85.62
2018-03-23T04:53:49.731Z,85.54
2018-03-23T04:56:55.289Z,85.60
2018-03-23T05:00:00.780Z,85.52
2018-03-23T05:03:06.342Z,85.63
2018-03-23T05:06:12.086Z,85.68
2018-03-23T05:09:22.836Z,85.50
2018-03-23T05:12:36.744Z,85.61
2018-03-23T05:15:44.468Z,85.63
2018-03-23T05:18:50.198Z,85.65
2018-03-23T05:21:55.920Z,85.60
2018-03-23T05:25:01.491Z,85.54
2018-03-23T05:28:07.059Z,85.74
2018-03-23T05:31:12.554Z,85.83
2018-03-23T05:34:18.101Z,85.78
2018-03-23T05:37:23.634Z,86.06
2018-03-23T05:40:32.254Z,85.88
2018-03-23T05:43:37.793Z,85.89
2018-03-23T05:46:43.293Z,85.92
2018-03-23T05:49:48.842Z,85.99
2018-03-23T05:52:54.427Z,86.01
2018-03-23T05:55:59.972Z,86.29
2018-03-23T05:59:05.521Z,86.26
2018-03-23T06:02:11.102Z,86.15
2018-03-23T06:05:16.452Z,86.24
2018-03-23T06:08:21.994Z,86.32
2018-03-23T06:11:27.493Z,86.35
2018-03-23T06:14:33.033Z,86.26
2018-03-23T06:17:38.542Z,86.15
2018-03-23T06:20:44.096Z,86.19
2018-03-23T06:23:49.588Z,86.23
2018-03-23T06:26:55.117Z,86.26
2018-03-23T06:30:00.659Z,86.23
2018-03-23T06:33:06.242Z,86.16
2018-03-23T06:36:11.733Z,86.27
2018-03-23T06:39:20.666Z,86.33
2018-03-23T06:42:29.759Z,86.38
2018-03-23T06:45:35.309Z,86.33
2018-03-23T06:48:40.840Z,86.44
2018-03-23T06:51:47.060Z,86.51
2018-03-23T06:54:53.044Z,86.53
2018-03-23T06:57:58.618Z,86.43
2018-03-23T07:01:04.220Z,86.66
2018-03-23T07:04:11.181Z,86.58
2018-03-23T07:07:16.718Z,86.54
2018-03-23T07:10:27.178Z,86.61
2018-03-23T07:13:38.970Z,86.62
2018-03-23T07:16:44.645Z,86.60
2018-03-23T07:19:50.192Z,86.51
2018-03-23T07:22:55.735Z,86.53
2018-03-23T07:26:01.226Z,86.55
2018-03-23T07:29:06.765Z,86.66
2018-03-23T07:32:12.296Z,86.66
2018-03-23T07:35:17.782Z,86.65
2018-03-23T07:38:23.316Z,86.65
2018-03-23T07:41:28.697Z,86.65
2018-03-23T07:44:34.201Z,86.51
2018-03-23T07:47:39.754Z,86.54
2018-03-23T07:50:45.291Z,86.51
2018-03-23T07:53:50.834Z,86.57
2018-03-23T07:56:56.390Z,86.36
2018-03-23T08:00:01.971Z,86.48
2018-03-23T08:03:07.525Z,86.51
2018-03-23T08:06:13.011Z,86.60
2018-03-23T08:09:18.545Z,86.50
2018-03-23T08:12:24.048Z,86.39
2018-03-23T08:15:29.602Z,86.28
2018-03-23T08:18:35.118Z,86.40
2018-03-23T08:21:40.667Z,86.43
2018-03-23T08:24:46.205Z,86.42
2018-03-23T08:27:51.750Z,86.29
2018-03-23T08:30:57.240Z,86.05
2018-03-23T08:34:02.780Z,86.42
2018-03-23T08:37:08.277Z,86.38
2018-03-23T08:40:13.829Z,86.40
2018-03-23T08:43:19.406Z,86.59
2018-03-23T08:46:24.906Z,86.35
2018-03-23T08:49:30.257Z,86.42
2018-03-23T08:52:35.765Z,86.53
2018-03-23T08:55:41.304Z,86.24
2018-03-23T08:58:46.832Z,86.34
2018-03-23T09:01:52.381Z,86.14
2018-03-23T09:04:57.887Z,86.42
2018-03-23T09:08:03.433Z,86.35
2018-03-23T09:11:08.693Z,86.30
2018-03-23T09:14:14.221Z,86.29
2018-03-23T09:17:19.714Z,86.41
2018-03-23T09:20:25.255Z,86.40
2018-03-23T09:23:30.753Z,86.42
2018-03-23T09:26:36.290Z,86.23
2018-03-23T09:29:46.692Z,86.33
2018-03-23T09:32:55.329Z,86.32
2018-03-23T09:36:00.876Z,86.40
2018-03-23T09:39:05.923Z,86.51
2018-03-23T09:42:11.478Z,86.53
2018-03-23T09:45:16.971Z,86.44
2018-03-23T09:48:22.530Z,86.23
2018-03-23T09:51:28.027Z,86.29
2018-03-23T09:54:33.573Z,86.13
2018-03-23T09:57:39.085Z,86.47
2018-03-23T10:00:44.617Z,86.41
2018-03-23T10:03:50.061Z,86.04
2018-03-23T10:06:55.777Z,85.93
2018-03-23T10:10:01.361Z,86.17
2018-03-23T10:13:06.901Z,86.32
2018-03-23T10:16:12.426Z,86.27
2018-03-23T10:19:17.986Z,86.28
2018-03-23T10:22:23.489Z,86.09
2018-03-23T10:25:29.033Z,85.90
2018-03-23T10:28:34.596Z,85.81
2018-03-23T10:31:40.170Z,86.13
2018-03-23T10:34:45.414Z,86.10
2018-03-23T10:37:50.960Z,85.84
2018-03-23T10:40:56.506Z,85.87
2018-03-23T10:44:01.790Z,86.02
2018-03-23T10:47:07.368Z,85.99
2018-03-23T10:50:12.972Z,85.77
2018-03-23T10:53:18.492Z,85.82
2018-03-23T10:56:24.106Z,85.84
2018-03-23T10:59:29.593Z,85.82
2018-03-23T11:02:44.889Z,85.79
2018-03-23T11:05:50.402Z,85.43
2018-03-23T11:08:55.939Z,85.75
2018-03-23T11:12:01.497Z,85.72
2018-03-23T11:15:07.439Z,85.43
2018-03-23T11:18:13.085Z,85.29
2018-03-23T11:21:18.653Z,85.37
2018-03-23T11:24:24.171Z,85.53
2018-03-23T11:27:29.745Z,85.46
2018-03-23T11:30:35.141Z,85.47
2018-03-23T11:33:40.681Z,85.42
2018-03-23T11:36:46.165Z,85.34
2018-03-23T11:39:51.775Z,85.33
2018-03-23T11:42:57.464Z,85.32
2018-03-23T11:46:03.003Z,85.19
2018-03-23T11:49:08.637Z,85.18
2018-03-23T11:52:13.983Z,85.19
2018-03-23T11:55:19.519Z,85.09
2018-03-23T11:58:25.084Z,85.12
2018-03-23T12:01:30.593Z,85.07
2018-03-23T12:04:36.176Z,85.12
2018-03-23T12:07:41.586Z,85.03
2018-03-23T12:10:47.140Z,85.11
2018-03-23T12:13:52.729Z,84.96
2018-03-23T12:16:58.113Z,84.99
2018-03-23T12:20:03.647Z,85.01
2018-03-23T12:23:09.261Z,85.08
2018-03-23T12:26:14.809Z,85.10
2018-03-23T12:29:21.510Z,85.05
2018-03-23T12:32:27.005Z,85.00
2018-03-23T12:35:32.544Z,84.97
2018-03-23T12:38:38.238Z,84.90
2018-03-23T12:41:43.789Z,84.93
2018-03-23T12:44:49.338Z,84.92
2018-03-23T12:47:54.884Z,84.84
2018-03-23T12:51:00.415Z,84.87
2018-03-23T12:57:41.157Z,84.81
2018-03-23T13:00:47.469Z,84.78
2018-03-23T13:03:53.017Z,84.73
2018-03-23T13:06:58.590Z,84.69
2018-03-23T13:10:04.143Z,84.66
2018-03-23T13:13:09.698Z,84.72
2018-03-23T13:16:15.217Z,84.65
2018-03-23T13:19:20.770Z,84.64
2018-03-23T13:22:26.345Z,84.64
2018-03-23T13:25:31.869Z,84.59
2018-03-23T13:28:37.419Z,84.61
2018-03-23T13:31:42.952Z,84.62
2018-03-23T13:34:49.683Z,84.52
2018-03-23T13:37:55.223Z,84.45
2018-03-23T13:41:00.790Z,84.42
2018-03-23T13:44:06.312Z,84.34
2018-03-23T13:47:12.061Z,84.28
2018-03-23T13:50:17.659Z,84.28
2018-03-23T13:53:23.375Z,84.17
2018-03-23T13:56:28.943Z,84.23
2018-03-23T13:59:39.941Z,84.21
2018-03-23T14:02:45.503Z,84.11
2018-03-23T14:05:51.103Z,84.14
2018-03-23T14:08:56.754Z,84.07
2018-03-23T14:12:02.477Z,84.10
2018-03-23T14:15:08.028Z,84.09
2018-03-23T14:18:13.830Z,84.15
2018-03-23T14:21:19.383Z,83.99
2018-03-23T14:24:24.965Z,84.07
2018-03-23T14:27:30.570Z,84.03
2018-03-23T14:30:36.471Z,84.01
2018-03-23T14:33:42.178Z,84.03
2018-03-23T14:36:47.708Z,83.98
2018-03-23T14:39:53.298Z,84.09
2018-03-23T14:42:58.872Z,83.93
2018-03-23T14:46:04.442Z,83.92
2018-03-23T14:49:10.113Z,83.95
2018-03-23T14:52:15.731Z,83.89
2018-03-23T14:55:25.660Z,83.87
2018-03-23T14:58:36.645Z,83.80
2018-03-23T15:01:42.323Z,83.72
2018-03-23T15:04:48.198Z,83.79
2018-03-23T15:07:53.760Z,83.85
2018-03-23T15:10:59.328Z,83.90
2018-03-23T15:14:18.165Z,83.89
2018-03-23T15:17:25.565Z,83.95
2018-03-23T15:20:42.104Z,83.93
2018-03-23T15:24:02.749Z,83.98
2018-03-23T15:27:23.127Z,83.96
2018-03-23T15:30:45.532Z,83.96
2018-03-23T15:33:57.578Z,84.00
2018-03-23T15:37:07.240Z,83.99
2018-03-23T15:40:18.754Z,83.94
2018-03-23T15:43:31.936Z,83.85
2018-03-23T15:46:44.910Z,83.79
2018-03-23T15:49:54.966Z,83.92
2018-03-23T15:53:05.537Z,83.85
2018-03-23T15:56:17.217Z,83.94
2018-03-23T15:59:25.829Z,83.84
2018-03-23T16:02:35.769Z,83.90
2018-03-23T16:05:46.073Z,84.03
2018-03-23T16:08:56.247Z,83.96
2018-03-23T16:12:07.260Z,83.98
2018-03-23T16:15:15.023Z,84.15
2018-03-23T16:18:20.585Z,84.00
2018-03-23T16:21:26.217Z,83.99
2018-03-23T16:24:31.726Z,83.96
2018-03-23T16:27:49.147Z,84.15
2018-03-23T16:31:07.337Z,84.17
2018-03-23T16:34:32.736Z,84.00
2018-03-23T16:41:17.952Z,84.17
2018-03-23T16:44:39.667Z,84.11
2018-03-23T16:48:01.415Z,84.03
2018-03-23T16:51:33.264Z,84.04
2018-03-23T16:54:53.757Z,84.07
2018-03-23T16:58:12.733Z,84.01
2018-03-23T17:01:30.261Z,84.05
2018-03-23T17:04:49.311Z,84.09
2018-03-23T17:08:13.737Z,84.25
2018-03-23T17:11:28.112Z,84.15
2018-03-23T17:14:40.833Z,84.06
2018-03-23T17:17:48.746Z,84.08
2018-03-23T17:21:00.067Z,84.13
2018-03-23T17:24:08.652Z,84.11
2018-03-23T17:27:16.807Z,84.11
2018-03-23T17:30:25.763Z,84.18
2018-03-23T17:33:37.001Z,84.07
2018-03-23T17:36:55.032Z,84.04
2018-03-23T17:40:04.410Z,84.10
2018-03-23T17:43:12.152Z,84.17
2018-03-23T17:46:21.251Z,84.18
2018-03-23T17:49:30.170Z,84.23
2018-03-23T17:52:37.875Z,84.10
2018-03-23T17:55:47.821Z,84.29
2018-03-23T17:58:56.266Z,84.32
2018-03-23T18:02:05.251Z,84.31
2018-03-23T18:05:12.052Z,84.15
2018-03-23T18:08:17.877Z,84.33
2018-03-23T18:11:30.677Z,84.12
2018-03-23T18:14:43.216Z,84.48
2018-03-23T18:17:52.858Z,84.42
2018-03-23T18:21:02.312Z,84.48
2018-03-23T18:24:15.188Z,84.54
2018-03-23T18:27:23.452Z,84.57
2018-03-23T18:30:37.651Z,84.56
2018-03-23T18:33:47.233Z,84.47
2018-03-23T18:36:53.325Z,84.54
2018-03-23T18:40:01.038Z,84.47
2018-03-23T18:43:08.345Z,84.51
2018-03-23T18:46:14.689Z,84.43
2018-03-23T18:49:21.868Z,84.43
2018-03-23T18:52:39.160Z,84.44
2018-03-23T18:55:46.734Z,84.56
2018-03-23T18:58:52.291Z,84.58
2018-03-23T19:02:00.644Z,84.58
2018-03-23T19:05:10.945Z,84.53
2018-03-23T19:08:19.460Z,84.45
2018-03-23T19:11:26.077Z,84.63
2018-03-23T19:14:39.179Z,84.66
2018-03-23T19:18:05.519Z,84.80
2018-03-23T19:21:20.094Z,84.66
2018-03-23T19:24:38.405Z,84.71
2018-03-23T19:27:49.834Z,84.66
2018-03-23T19:31:21.233Z,84.74
2018-03-23T19:34:33.714Z,84.88
2018-03-23T19:37:49.540Z,84.94
2018-03-23T19:40:57.136Z,84.83
2018-03-23T19:44:02.713Z,84.61
2018-03-23T19:47:09.042Z,84.72
2018-03-23T19:50:15.686Z,84.91
2018-03-23T19:53:33.565Z,84.96
2018-03-23T19:56:40.070Z,84.98
2018-03-23T19:59:45.567Z,84.96
2018-03-23T20:02:51.175Z,84.93
2018-03-23T20:05:56.875Z,84.95
2018-03-23T20:09:02.480Z,84.85
2018-03-23T20:12:07.788Z,85.14
2018-03-23T20:15:13.922Z,85.13
2018-03-23T20:18:22.729Z,85.01
2018-03-23T20:21:28.221Z,85.19
2018-03-23T20:24:33.803Z,85.02
2018-03-23T20:27:44.668Z,85.06
2018-03-23T20:30:50.554Z,85.19
2018-03-23T20:33:56.131Z,85.16
2018-03-23T20:37:01.669Z,85.26
2018-03-23T20:40:07.218Z,85.33
2018-03-23T20:43:12.777Z,85.34
2018-03-23T20:46:26.839Z,85.24
2018-03-23T20:49:39.710Z,85.13
2018-03-23T20:52:49.120Z,85.20
2018-03-23T20:55:55.251Z,85.38
2018-03-23T20:59:00.825Z,85.24
2018-03-23T21:02:06.346Z,85.39
2018-03-23T21:05:11.927Z,85.36
2018-03-23T21:08:17.413Z,85.11
2018-03-23T21:11:22.948Z,85.34
2018-03-23T21:14:28.354Z,85.25
2018-03-23T21:17:33.850Z,85.51
2018-03-23T21:20:39.399Z,85.44
2018-03-23T21:23:44.915Z,85.50
2018-03-23T21:26:50.490Z,85.33
2018-03-23T21:29:56.026Z,85.49
2018-03-23T21:33:01.532Z,85.70
2018-03-23T21:36:07.126Z,85.56
2018-03-23T21:39:12.684Z,85.49
2018-03-23T21:42:18.221Z,85.60
2018-03-23T21:45:23.826Z,85.63
2018-03-23T21:48:29.326Z,85.48
2018-03-23T21:51:34.724Z,85.57
2018-03-23T21:54:40.270Z,85.60
2018-03-23T21:57:45.836Z,85.52
2018-03-23T22:00:51.342Z,85.64
2018-03-23T22:03:56.901Z,85.57
2018-03-23T22:07:02.406Z,85.60
2018-03-23T22:10:08.064Z,85.52
2018-03-23T22:13:13.616Z,85.61
2018-03-23T22:16:19.129Z,85.56
2018-03-23T22:19:25.076Z,85.53
2018-03-23T22:22:30.634Z,85.70
2018-03-23T22:25:36.141Z,85.64
2018-03-23T22:28:41.708Z,85.65
2018-03-23T22:31:47.220Z,85.77
2018-03-23T22:34:52.775Z,85.79
2018-03-23T22:37:58.339Z,86.03
2018-03-23T22:41:03.908Z,85.94
2018-03-23T22:44:09.443Z,85.86
2018-03-23T22:47:15.002Z,85.92
2018-03-23T22:50:20.513Z,85.83
2018-03-23T22:53:26.393Z,85.74
2018-03-23T22:56:31.933Z,85.63
2018-03-23T22:59:37.470Z,85.67
2018-03-23T23:02:42.982Z,85.82
2018-03-23T23:05:48.548Z,85.85
2018-03-23T23:08:54.145Z,85.86
2018-03-23T23:11:59.695Z,85.80
2018-03-23T23:15:04.891Z,85.88
2018-03-23T23:18:10.459Z,85.95
2018-03-23T23:21:15.964Z,86.03
2018-03-23T23:24:21.503Z,85.78
2018-03-23T23:27:27.105Z,86.10
2018-03-23T23:30:33.694Z,85.77
2018-03-23T23:33:39.235Z,85.92
2018-03-23T23:36:44.992Z,85.80
2018-03-23T23:39:50.494Z,86.02
2018-03-23T23:42:56.049Z,86.03
2018-03-23T23:46:01.567Z,86.02
2018-03-23T23:49:07.141Z,85.99
2018-03-23T23:52:12.644Z,86.10
2018-03-23T23:55:18.174Z,86.01
2018-03-23T23:58:23.673Z,86.00
